Aviation Digital Data Service (ADDS)

Output produced by METARs form (1005 UTC 19 January 2019)
found at http://www.aviationweather.gov/metar/data/
 
VLLB 190900Z 34002KT 9999 FEW018 26/16 Q1012 NOSIG
TAF VLLB 190500Z 1906/2006 04004KT 9999 SCT017 BKN080 
     TEMPO 1916/1922 3000 BR SCT010 OVC070
       
VLPS 190900Z 18002KT 9999 FEW024 34/16 Q1010 NOSIG
TAF VLPS 190500Z 1906/2006 04006KT 9999 FEW020 SCT050
       
VLSK 190900Z 04002KT 7000 SCT020 SCT100 32/14 Q1011 NOSIG
TAF VLSK 190500Z 1906/2006 04004KT 8000 SCT020 SCT100 
     TEMPO 1914/1920 3000 BR SCT040 SCT100
       
VLVT 190930Z 32004KT 8000 FEW020 30/16 Q1012 NOSIG
TAF VLVT 190500Z 1906/2006 09004KT 9999 FEW020 SCT050 
     TEMPO 1914/1920 4000 BR FEW050 FEW200